sensor_id;sensor_type;location;lat;lon;timestamp;P1;durP1;ratioP1;P2;durP2;ratioP2
14396;SDS011;50653;47.810;13.022;2023-02-28T00:01:20;6.20;;;5.70;;
14396;SDS011;50653;47.810;13.022;2023-02-28T00:03:46;6.40;;;5.80;;
14396;SDS011;50653;47.810;13.022;2023-02-28T00:06:12;6.37;;;6.03;;
14396;SDS011;50653;47.810;13.022;2023-02-28T00:08:38;5.93;;;5.47;;
14396;SDS011;50653;47.810;13.022;2023-02-28T00:11:08;5.68;;;5.28;;
14396;SDS011;50653;47.810;13.022;2023-02-28T00:13:36;6.20;;;5.80;;
14396;SDS011;50653;47.810;13.022;2023-02-28T00:16:05;5.82;;;5.40;;
14396;SDS011;50653;47.810;13.022;2023-02-28T00:18:34;6.45;;;5.85;;
14396;SDS011;50653;47.810;13.022;2023-02-28T00:21:00;5.70;;;5.30;;
14396;SDS011;50653;47.810;13.022;2023-02-28T00:23:26;6.50;;;5.90;;
14396;SDS011;50653;47.810;13.022;2023-02-28T00:25:52;6.43;;;5.90;;
14396;SDS011;50653;47.810;13.022;2023-02-28T00:28:18;5.38;;;5.07;;
14396;SDS011;50653;47.810;13.022;2023-02-28T00:30:44;5.40;;;5.10;;
14396;SDS011;50653;47.810;13.022;2023-02-28T00:33:10;6.10;;;5.80;;
14396;SDS011;50653;47.810;13.022;2023-02-28T00:35:35;6.07;;;5.55;;
14396;SDS011;50653;47.810;13.022;2023-02-28T00:38:01;6.13;;;5.53;;
14396;SDS011;50653;47.810;13.022;2023-02-28T00:40:27;6.60;;;6.10;;
14396;SDS011;50653;47.810;13.022;2023-02-28T00:42:53;7.07;;;6.47;;
14396;SDS011;50653;47.810;13.022;2023-02-28T00:45:19;7.20;;;6.50;;
14396;SDS011;50653;47.810;13.022;2023-02-28T00:47:44;8.40;;;7.70;;
14396;SDS011;50653;47.810;13.022;2023-02-28T00:50:11;7.47;;;6.87;;
14396;SDS011;50653;47.810;13.022;2023-02-28T00:52:37;8.23;;;7.72;;
14396;SDS011;50653;47.810;13.022;2023-02-28T00:55:03;8.80;;;8.00;;
14396;SDS011;50653;47.810;13.022;2023-02-28T00:57:29;8.05;;;7.53;;
14396;SDS011;50653;47.810;13.022;2023-02-28T00:59:55;8.13;;;7.53;;
14396;SDS011;50653;47.810;13.022;2023-02-28T01:02:21;9.50;;;7.80;;
14396;SDS011;50653;47.810;13.022;2023-02-28T01:04:47;8.85;;;8.20;;
14396;SDS011;50653;47.810;13.022;2023-02-28T01:07:13;9.68;;;8.77;;
14396;SDS011;50653;47.810;13.022;2023-02-28T01:09:39;9.10;;;8.50;;
14396;SDS011;50653;47.810;13.022;2023-02-28T01:12:06;9.15;;;8.35;;
14396;SDS011;50653;47.810;13.022;2023-02-28T01:14:32;10.35;;;8.68;;
14396;SDS011;50653;47.810;13.022;2023-02-28T01:16:59;9.43;;;8.73;;
14396;SDS011;50653;47.810;13.022;2023-02-28T01:19:25;9.90;;;9.00;;
14396;SDS011;50653;47.810;13.022;2023-02-28T01:21:51;8.85;;;8.25;;
14396;SDS011;50653;47.810;13.022;2023-02-28T01:24:17;9.00;;;8.30;;
14396;SDS011;50653;47.810;13.022;2023-02-28T01:26:43;9.90;;;9.10;;
14396;SDS011;50653;47.810;13.022;2023-02-28T01:29:09;10.77;;;9.00;;
14396;SDS011;50653;47.810;13.022;2023-02-28T01:31:35;10.00;;;9.18;;
14396;SDS011;50653;47.810;13.022;2023-02-28T01:34:01;9.50;;;8.60;;
14396;SDS011;50653;47.810;13.022;2023-02-28T01:36:27;10.15;;;9.35;;
14396;SDS011;50653;47.810;13.022;2023-02-28T01:38:54;11.30;;;9.00;;
14396;SDS011;50653;47.810;13.022;2023-02-28T01:41:21;9.43;;;8.80;;
14396;SDS011;50653;47.810;13.022;2023-02-28T01:46:13;9.02;;;8.23;;
14396;SDS011;50653;47.810;13.022;2023-02-28T01:48:41;7.97;;;7.38;;
14396;SDS011;50653;47.810;13.022;2023-02-28T01:51:15;9.00;;;8.30;;
14396;SDS011;50653;47.810;13.022;2023-02-28T01:53:45;9.23;;;8.52;;
14396;SDS011;50653;47.810;13.022;2023-02-28T01:56:15;10.75;;;9.65;;
14396;SDS011;50653;47.810;13.022;2023-02-28T01:58:47;10.18;;;9.20;;
14396;SDS011;50653;47.810;13.022;2023-02-28T02:01:17;9.30;;;8.40;;
14396;SDS011;50653;47.810;13.022;2023-02-28T02:03:51;9.80;;;8.90;;
14396;SDS011;50653;47.810;13.022;2023-02-28T02:06:24;10.60;;;9.80;;
14396;SDS011;50653;47.810;13.022;2023-02-28T02:08:52;12.27;;;11.18;;
14396;SDS011;50653;47.810;13.022;2023-02-28T02:11:19;11.55;;;10.13;;
14396;SDS011;50653;47.810;13.022;2023-02-28T02:13:56;10.75;;;9.90;;
14396;SDS011;50653;47.810;13.022;2023-02-28T02:19:46;10.07;;;9.18;;
14396;SDS011;50653;47.810;13.022;2023-02-28T02:25:43;11.60;;;8.63;;
14396;SDS011;50653;47.810;13.022;2023-02-28T02:36:53;10.50;;;9.40;;
14396;SDS011;50653;47.810;13.022;2023-02-28T02:39:30;8.90;;;8.10;;
14396;SDS011;50653;47.810;13.022;2023-02-28T02:42:01;11.00;;;10.00;;
14396;SDS011;50653;47.810;13.022;2023-02-28T02:44:52;8.40;;;7.70;;
14396;SDS011;50653;47.810;13.022;2023-02-28T02:47:26;10.35;;;8.48;;
14396;SDS011;50653;47.810;13.022;2023-02-28T02:49:55;10.18;;;9.18;;
14396;SDS011;50653;47.810;13.022;2023-02-28T02:52:27;9.90;;;8.93;;
14396;SDS011;50653;47.810;13.022;2023-02-28T02:54:59;9.63;;;8.80;;
14396;SDS011;50653;47.810;13.022;2023-02-28T02:57:47;11.05;;;9.40;;
14396;SDS011;50653;47.810;13.022;2023-02-28T03:00:17;9.80;;;8.85;;
14396;SDS011;50653;47.810;13.022;2023-02-28T03:02:48;10.00;;;9.20;;
14396;SDS011;50653;47.810;13.022;2023-02-28T03:05:20;10.50;;;9.60;;
14396;SDS011;50653;47.810;13.022;2023-02-28T03:07:50;10.70;;;9.68;;
14396;SDS011;50653;47.810;13.022;2023-02-28T03:10:35;10.10;;;9.10;;
14396;SDS011;50653;47.810;13.022;2023-02-28T03:27:18;10.45;;;9.63;;
14396;SDS011;50653;47.810;13.022;2023-02-28T03:30:06;11.93;;;9.13;;
14396;SDS011;50653;47.810;13.022;2023-02-28T03:32:40;10.70;;;9.70;;
14396;SDS011;50653;47.810;13.022;2023-02-28T03:35:13;12.90;;;9.60;;
14396;SDS011;50653;47.810;13.022;2023-02-28T03:37:47;10.90;;;9.67;;
14396;SDS011;50653;47.810;13.022;2023-02-28T03:40:21;10.60;;;9.70;;
14396;SDS011;50653;47.810;13.022;2023-02-28T03:42:52;13.00;;;9.50;;
14396;SDS011;50653;47.810;13.022;2023-02-28T03:45:24;10.57;;;9.60;;
14396;SDS011;50653;47.810;13.022;2023-02-28T03:48:13;11.90;;;10.90;;
14396;SDS011;50653;47.810;13.022;2023-02-28T03:50:44;12.20;;;11.10;;
14396;SDS011;50653;47.810;13.022;2023-02-28T03:53:30;10.88;;;9.98;;
14396;SDS011;50653;47.810;13.022;2023-02-28T03:56:02;11.30;;;10.23;;
14396;SDS011;50653;47.810;13.022;2023-02-28T04:01:44;11.82;;;10.77;;
14396;SDS011;50653;47.810;13.022;2023-02-28T04:04:11;10.90;;;9.80;;
14396;SDS011;50653;47.810;13.022;2023-02-28T04:06:38;11.60;;;10.40;;
14396;SDS011;50653;47.810;13.022;2023-02-28T04:09:05;11.35;;;10.35;;
14396;SDS011;50653;47.810;13.022;2023-02-28T04:11:33;11.57;;;10.38;;
14396;SDS011;50653;47.810;13.022;2023-02-28T04:14:10;16.90;;;12.25;;
14396;SDS011;50653;47.810;13.022;2023-02-28T04:16:38;11.70;;;10.70;;
14396;SDS011;50653;47.810;13.022;2023-02-28T04:19:06;12.80;;;10.75;;
14396;SDS011;50653;47.810;13.022;2023-02-28T04:21:42;12.07;;;10.68;;
14396;SDS011;50653;47.810;13.022;2023-02-28T04:24:16;12.68;;;10.52;;
14396;SDS011;50653;47.810;13.022;2023-02-28T04:26:50;11.45;;;10.35;;
14396;SDS011;50653;47.810;13.022;2023-02-28T04:31:48;11.65;;;10.10;;
14396;SDS011;50653;47.810;13.022;2023-02-28T04:34:14;10.85;;;9.85;;
14396;SDS011;50653;47.810;13.022;2023-02-28T04:36:40;11.07;;;9.98;;
14396;SDS011;50653;47.810;13.022;2023-02-28T04:39:06;10.13;;;9.23;;
14396;SDS011;50653;47.810;13.022;2023-02-28T04:41:31;11.50;;;10.40;;
14396;SDS011;50653;47.810;13.022;2023-02-28T04:43:57;10.43;;;9.35;;
14396;SDS011;50653;47.810;13.022;2023-02-28T04:46:23;10.73;;;9.55;;
14396;SDS011;50653;47.810;13.022;2023-02-28T04:48:49;10.75;;;9.85;;
14396;SDS011;50653;47.810;13.022;2023-02-28T04:51:15;15.88;;;10.20;;
14396;SDS011;50653;47.810;13.022;2023-02-28T04:53:43;12.35;;;10.43;;
14396;SDS011;50653;47.810;13.022;2023-02-28T04:56:10;11.20;;;9.15;;
14396;SDS011;50653;47.810;13.022;2023-02-28T04:58:38;17.83;;;13.55;;
14396;SDS011;50653;47.810;13.022;2023-02-28T05:01:05;15.50;;;11.93;;
14396;SDS011;50653;47.810;13.022;2023-02-28T05:03:40;15.73;;;11.30;;
14396;SDS011;50653;47.810;13.022;2023-02-28T05:06:07;13.55;;;10.75;;
14396;SDS011;50653;47.810;13.022;2023-02-28T05:08:33;16.60;;;11.30;;
14396;SDS011;50653;47.810;13.022;2023-02-28T05:10:59;14.60;;;12.52;;
14396;SDS011;50653;47.810;13.022;2023-02-28T05:13:26;12.75;;;11.00;;
14396;SDS011;50653;47.810;13.022;2023-02-28T05:15:52;24.30;;;16.23;;
14396;SDS011;50653;47.810;13.022;2023-02-28T05:18:18;17.50;;;12.23;;
14396;SDS011;50653;47.810;13.022;2023-02-28T05:20:44;15.00;;;10.87;;
14396;SDS011;50653;47.810;13.022;2023-02-28T05:23:11;17.80;;;12.38;;
14396;SDS011;50653;47.810;13.022;2023-02-28T05:25:38;12.48;;;11.35;;
14396;SDS011;50653;47.810;13.022;2023-02-28T05:28:05;11.20;;;10.20;;
14396;SDS011;50653;47.810;13.022;2023-02-28T05:30:31;10.95;;;9.95;;
14396;SDS011;50653;47.810;13.022;2023-02-28T05:32:57;11.95;;;10.85;;
14396;SDS011;50653;47.810;13.022;2023-02-28T05:35:23;13.17;;;11.23;;
14396;SDS011;50653;47.810;13.022;2023-02-28T05:37:49;12.82;;;11.45;;
14396;SDS011;50653;47.810;13.022;2023-02-28T05:40:14;13.60;;;10.52;;
14396;SDS011;50653;47.810;13.022;2023-02-28T05:42:41;14.50;;;11.30;;
14396;SDS011;50653;47.810;13.022;2023-02-28T05:45:07;14.35;;;11.30;;
14396;SDS011;50653;47.810;13.022;2023-02-28T05:47:33;17.20;;;12.77;;
14396;SDS011;50653;47.810;13.022;2023-02-28T05:49:59;22.70;;;14.73;;
14396;SDS011;50653;47.810;13.022;2023-02-28T05:52:26;17.85;;;13.70;;
14396;SDS011;50653;47.810;13.022;2023-02-28T05:54:52;20.52;;;12.27;;
14396;SDS011;50653;47.810;13.022;2023-02-28T05:57:17;18.40;;;13.40;;
14396;SDS011;50653;47.810;13.022;2023-02-28T05:59:43;16.33;;;12.93;;
14396;SDS011;50653;47.810;13.022;2023-02-28T06:02:11;19.40;;;12.80;;
14396;SDS011;50653;47.810;13.022;2023-02-28T06:04:38;17.52;;;13.13;;
14396;SDS011;50653;47.810;13.022;2023-02-28T06:07:05;14.00;;;12.50;;
14396;SDS011;50653;47.810;13.022;2023-02-28T06:09:32;16.57;;;13.60;;
14396;SDS011;50653;47.810;13.022;2023-02-28T06:11:58;18.60;;;12.27;;
14396;SDS011;50653;47.810;13.022;2023-02-28T06:14:24;16.80;;;12.43;;
14396;SDS011;50653;47.810;13.022;2023-02-28T06:16:50;19.77;;;12.40;;
14396;SDS011;50653;47.810;13.022;2023-02-28T06:19:16;14.88;;;12.73;;
14396;SDS011;50653;47.810;13.022;2023-02-28T06:21:42;14.75;;;12.00;;
14396;SDS011;50653;47.810;13.022;2023-02-28T06:24:07;16.07;;;12.63;;
14396;SDS011;50653;47.810;13.022;2023-02-28T06:26:33;17.08;;;11.25;;
14396;SDS011;50653;47.810;13.022;2023-02-28T06:28:59;16.48;;;12.70;;
14396;SDS011;50653;47.810;13.022;2023-02-28T06:31:25;16.30;;;12.00;;
14396;SDS011;50653;47.810;13.022;2023-02-28T06:33:51;16.87;;;13.10;;
14396;SDS011;50653;47.810;13.022;2023-02-28T06:36:17;16.97;;;11.97;;
14396;SDS011;50653;47.810;13.022;2023-02-28T06:38:43;13.68;;;12.30;;
14396;SDS011;50653;47.810;13.022;2023-02-28T06:41:10;18.05;;;12.43;;
14396;SDS011;50653;47.810;13.022;2023-02-28T06:43:37;14.23;;;12.70;;
14396;SDS011;50653;47.810;13.022;2023-02-28T06:46:06;14.80;;;13.30;;
14396;SDS011;50653;47.810;13.022;2023-02-28T06:48:33;16.45;;;12.68;;
14396;SDS011;50653;47.810;13.022;2023-02-28T06:51:06;17.67;;;13.20;;
14396;SDS011;50653;47.810;13.022;2023-02-28T06:53:36;18.20;;;11.95;;
14396;SDS011;50653;47.810;13.022;2023-02-28T06:56:09;20.02;;;12.68;;
14396;SDS011;50653;47.810;13.022;2023-02-28T06:58:37;20.70;;;13.65;;
14396;SDS011;50653;47.810;13.022;2023-02-28T07:01:04;16.60;;;13.13;;
14396;SDS011;50653;47.810;13.022;2023-02-28T07:03:30;19.60;;;13.05;;
14396;SDS011;50653;47.810;13.022;2023-02-28T07:05:56;16.55;;;12.70;;
14396;SDS011;50653;47.810;13.022;2023-02-28T07:08:23;17.20;;;13.68;;
14396;SDS011;50653;47.810;13.022;2023-02-28T07:10:52;17.47;;;13.27;;
14396;SDS011;50653;47.810;13.022;2023-02-28T07:13:22;24.25;;;15.88;;
14396;SDS011;50653;47.810;13.022;2023-02-28T07:15:58;18.88;;;12.70;;
14396;SDS011;50653;47.810;13.022;2023-02-28T07:18:25;18.88;;;13.02;;
14396;SDS011;50653;47.810;13.022;2023-02-28T07:20:52;14.57;;;12.45;;
14396;SDS011;50653;47.810;13.022;2023-02-28T07:23:18;18.52;;;12.18;;
14396;SDS011;50653;47.810;13.022;2023-02-28T07:25:44;15.70;;;13.10;;
14396;SDS011;50653;47.810;13.022;2023-02-28T07:28:10;14.77;;;12.98;;
14396;SDS011;50653;47.810;13.022;2023-02-28T07:30:37;17.48;;;13.32;;
14396;SDS011;50653;47.810;13.022;2023-02-28T07:33:02;18.58;;;13.30;;
14396;SDS011;50653;47.810;13.022;2023-02-28T07:35:28;15.10;;;13.50;;
14396;SDS011;50653;47.810;13.022;2023-02-28T07:37:57;14.40;;;13.00;;
14396;SDS011;50653;47.810;13.022;2023-02-28T07:40:23;14.55;;;12.85;;
14396;SDS011;50653;47.810;13.022;2023-02-28T07:42:49;17.13;;;12.48;;
14396;SDS011;50653;47.810;13.022;2023-02-28T07:45:16;14.55;;;12.63;;
14396;SDS011;50653;47.810;13.022;2023-02-28T07:47:42;15.65;;;11.82;;
14396;SDS011;50653;47.810;13.022;2023-02-28T07:50:09;14.48;;;12.63;;
14396;SDS011;50653;47.810;13.022;2023-02-28T07:52:37;15.20;;;12.23;;
14396;SDS011;50653;47.810;13.022;2023-02-28T07:55:04;14.30;;;12.88;;
14396;SDS011;50653;47.810;13.022;2023-02-28T07:57:31;13.10;;;11.85;;
14396;SDS011;50653;47.810;13.022;2023-02-28T07:59:56;18.15;;;12.77;;
14396;SDS011;50653;47.810;13.022;2023-02-28T08:02:22;14.77;;;12.43;;
14396;SDS011;50653;47.810;13.022;2023-02-28T08:04:48;12.90;;;11.60;;
14396;SDS011;50653;47.810;13.022;2023-02-28T08:07:14;12.57;;;11.47;;
14396;SDS011;50653;47.810;13.022;2023-02-28T08:09:41;16.00;;;12.80;;
14396;SDS011;50653;47.810;13.022;2023-02-28T08:12:08;15.35;;;11.63;;
14396;SDS011;50653;47.810;13.022;2023-02-28T08:14:34;13.98;;;12.48;;
14396;SDS011;50653;47.810;13.022;2023-02-28T08:17:00;14.50;;;12.82;;
14396;SDS011;50653;47.810;13.022;2023-02-28T08:19:26;13.23;;;11.90;;
14396;SDS011;50653;47.810;13.022;2023-02-28T08:21:52;13.47;;;12.17;;
14396;SDS011;50653;47.810;13.022;2023-02-28T08:24:17;15.67;;;12.83;;
14396;SDS011;50653;47.810;13.022;2023-02-28T08:26:43;13.50;;;12.20;;
14396;SDS011;50653;47.810;13.022;2023-02-28T08:29:09;13.17;;;11.90;;
14396;SDS011;50653;47.810;13.022;2023-02-28T08:31:35;13.95;;;12.48;;
14396;SDS011;50653;47.810;13.022;2023-02-28T08:34:04;14.10;;;12.60;;
14396;SDS011;50653;47.810;13.022;2023-02-28T08:36:31;14.40;;;12.90;;
14396;SDS011;50653;47.810;13.022;2023-02-28T08:38:57;13.68;;;12.27;;
14396;SDS011;50653;47.810;13.022;2023-02-28T08:41:23;18.08;;;12.88;;
14396;SDS011;50653;47.810;13.022;2023-02-28T08:43:48;18.07;;;12.97;;
14396;SDS011;50653;47.810;13.022;2023-02-28T08:46:14;14.50;;;12.70;;
14396;SDS011;50653;47.810;13.022;2023-02-28T08:48:40;14.25;;;12.32;;
14396;SDS011;50653;47.810;13.022;2023-02-28T08:51:07;16.42;;;13.20;;
14396;SDS011;50653;47.810;13.022;2023-02-28T08:53:35;14.73;;;12.50;;
14396;SDS011;50653;47.810;13.022;2023-02-28T08:56:04;15.98;;;12.90;;
14396;SDS011;50653;47.810;13.022;2023-02-28T08:58:34;17.42;;;13.85;;
14396;SDS011;50653;47.810;13.022;2023-02-28T09:01:06;15.73;;;13.95;;
14396;SDS011;50653;47.810;13.022;2023-02-28T09:03:37;19.45;;;14.30;;
14396;SDS011;50653;47.810;13.022;2023-02-28T09:06:03;20.00;;;15.10;;
14396;SDS011;50653;47.810;13.022;2023-02-28T09:08:30;14.70;;;13.25;;
14396;SDS011;50653;47.810;13.022;2023-02-28T09:10:56;15.10;;;13.30;;
14396;SDS011;50653;47.810;13.022;2023-02-28T09:13:23;15.02;;;13.48;;
14396;SDS011;50653;47.810;13.022;2023-02-28T09:15:49;20.30;;;15.00;;
14396;SDS011;50653;47.810;13.022;2023-02-28T09:18:15;16.10;;;14.50;;
14396;SDS011;50653;47.810;13.022;2023-02-28T09:20:41;14.95;;;13.55;;
14396;SDS011;50653;47.810;13.022;2023-02-28T09:23:08;16.00;;;14.40;;
14396;SDS011;50653;47.810;13.022;2023-02-28T09:25:34;19.02;;;15.02;;
14396;SDS011;50653;47.810;13.022;2023-02-28T09:28:01;18.87;;;15.67;;
14396;SDS011;50653;47.810;13.022;2023-02-28T09:30:27;22.55;;;17.42;;
14396;SDS011;50653;47.810;13.022;2023-02-28T09:32:53;24.10;;;16.90;;
14396;SDS011;50653;47.810;13.022;2023-02-28T09:35:20;18.25;;;16.33;;
14396;SDS011;50653;47.810;13.022;2023-02-28T09:37:46;20.52;;;17.75;;
14396;SDS011;50653;47.810;13.022;2023-02-28T09:40:13;21.75;;;17.58;;
14396;SDS011;50653;47.810;13.022;2023-02-28T09:42:44;25.58;;;17.95;;
14396;SDS011;50653;47.810;13.022;2023-02-28T09:48:25;22.77;;;17.30;;
14396;SDS011;50653;47.810;13.022;2023-02-28T09:51:00;21.98;;;17.52;;
14396;SDS011;50653;47.810;13.022;2023-02-28T09:53:30;29.23;;;20.88;;
14396;SDS011;50653;47.810;13.022;2023-02-28T09:56:01;21.05;;;18.33;;
14396;SDS011;50653;47.810;13.022;2023-02-28T09:58:55;23.98;;;18.50;;
14396;SDS011;50653;47.810;13.022;2023-02-28T10:01:27;21.60;;;17.65;;
14396;SDS011;50653;47.810;13.022;2023-02-28T10:06:49;27.42;;;17.17;;
14396;SDS011;50653;47.810;13.022;2023-02-28T18:47:48;26.85;;;20.02;;
14396;SDS011;50653;47.810;13.022;2023-02-28T18:50:24;25.80;;;20.87;;
14396;SDS011;50653;47.810;13.022;2023-02-28T18:52:50;28.63;;;21.90;;
14396;SDS011;50653;47.810;13.022;2023-02-28T18:55:16;28.83;;;22.37;;
14396;SDS011;50653;47.810;13.022;2023-02-28T18:57:44;29.40;;;21.60;;
14396;SDS011;50653;47.810;13.022;2023-02-28T19:00:10;26.95;;;21.80;;
14396;SDS011;50653;47.810;13.022;2023-02-28T19:02:37;27.05;;;22.67;;
14396;SDS011;50653;47.810;13.022;2023-02-28T19:05:03;29.27;;;23.65;;
14396;SDS011;50653;47.810;13.022;2023-02-28T19:07:29;28.52;;;21.73;;
14396;SDS011;50653;47.810;13.022;2023-02-28T19:09:57;28.10;;;22.63;;
14396;SDS011;50653;47.810;13.022;2023-02-28T19:12:26;35.43;;;26.20;;
14396;SDS011;50653;47.810;13.022;2023-02-28T19:14:52;28.60;;;23.33;;
14396;SDS011;50653;47.810;13.022;2023-02-28T19:17:17;28.63;;;22.80;;
14396;SDS011;50653;47.810;13.022;2023-02-28T19:19:43;27.35;;;22.50;;
14396;SDS011;50653;47.810;13.022;2023-02-28T19:22:09;24.90;;;21.48;;
14396;SDS011;50653;47.810;13.022;2023-02-28T19:24:35;29.13;;;22.13;;
14396;SDS011;50653;47.810;13.022;2023-02-28T19:27:00;28.63;;;22.80;;
14396;SDS011;50653;47.810;13.022;2023-02-28T19:29:26;28.90;;;24.00;;
14396;SDS011;50653;47.810;13.022;2023-02-28T19:31:51;28.27;;;22.92;;
14396;SDS011;50653;47.810;13.022;2023-02-28T19:34:17;29.73;;;23.63;;
14396;SDS011;50653;47.810;13.022;2023-02-28T19:36:43;29.27;;;22.90;;
14396;SDS011;50653;47.810;13.022;2023-02-28T19:39:09;31.00;;;22.65;;
14396;SDS011;50653;47.810;13.022;2023-02-28T19:41:34;31.75;;;24.83;;
14396;SDS011;50653;47.810;13.022;2023-02-28T19:44:00;33.72;;;26.70;;
14396;SDS011;50653;47.810;13.022;2023-02-28T19:46:25;29.95;;;24.50;;
14396;SDS011;50653;47.810;13.022;2023-02-28T19:48:53;27.83;;;23.60;;
14396;SDS011;50653;47.810;13.022;2023-02-28T19:51:19;32.28;;;24.50;;
14396;SDS011;50653;47.810;13.022;2023-02-28T19:53:45;31.23;;;25.52;;
14396;SDS011;50653;47.810;13.022;2023-02-28T19:56:11;31.40;;;24.52;;
14396;SDS011;50653;47.810;13.022;2023-02-28T19:58:36;29.88;;;25.73;;
14396;SDS011;50653;47.810;13.022;2023-02-28T20:01:09;39.95;;;29.75;;
14396;SDS011;50653;47.810;13.022;2023-02-28T20:03:37;31.23;;;25.90;;
14396;SDS011;50653;47.810;13.022;2023-02-28T20:06:05;30.70;;;26.33;;
14396;SDS011;50653;47.810;13.022;2023-02-28T20:08:32;27.92;;;24.30;;
14396;SDS011;50653;47.810;13.022;2023-02-28T20:11:01;33.63;;;27.60;;
14396;SDS011;50653;47.810;13.022;2023-02-28T20:13:28;29.38;;;24.60;;
14396;SDS011;50653;47.810;13.022;2023-02-28T20:15:57;32.10;;;25.80;;
14396;SDS011;50653;47.810;13.022;2023-02-28T20:18:24;31.53;;;26.40;;
14396;SDS011;50653;47.810;13.022;2023-02-28T20:20:49;30.67;;;25.90;;
14396;SDS011;50653;47.810;13.022;2023-02-28T20:23:15;31.17;;;24.83;;
14396;SDS011;50653;47.810;13.022;2023-02-28T20:25:41;32.10;;;26.70;;
14396;SDS011;50653;47.810;13.022;2023-02-28T20:28:06;30.80;;;26.07;;
14396;SDS011;50653;47.810;13.022;2023-02-28T20:30:32;30.80;;;25.70;;
14396;SDS011;50653;47.810;13.022;2023-02-28T20:32:58;36.25;;;27.73;;
14396;SDS011;50653;47.810;13.022;2023-02-28T20:35:24;35.77;;;28.90;;
14396;SDS011;50653;47.810;13.022;2023-02-28T20:37:49;37.70;;;27.80;;
14396;SDS011;50653;47.810;13.022;2023-02-28T20:40:15;38.17;;;29.53;;
14396;SDS011;50653;47.810;13.022;2023-02-28T20:42:40;36.30;;;29.27;;
14396;SDS011;50653;47.810;13.022;2023-02-28T20:45:06;35.33;;;30.00;;
14396;SDS011;50653;47.810;13.022;2023-02-28T20:47:33;40.42;;;30.13;;
14396;SDS011;50653;47.810;13.022;2023-02-28T20:49:58;37.90;;;30.35;;
14396;SDS011;50653;47.810;13.022;2023-02-28T20:52:24;36.75;;;29.65;;
14396;SDS011;50653;47.810;13.022;2023-02-28T20:54:49;37.90;;;30.47;;
14396;SDS011;50653;47.810;13.022;2023-02-28T20:57:15;37.70;;;29.33;;
14396;SDS011;50653;47.810;13.022;2023-02-28T20:59:40;38.07;;;28.80;;
14396;SDS011;50653;47.810;13.022;2023-02-28T21:02:06;34.80;;;28.60;;
14396;SDS011;50653;47.810;13.022;2023-02-28T21:04:33;33.65;;;26.90;;
14396;SDS011;50653;47.810;13.022;2023-02-28T21:06:59;37.33;;;27.35;;
14396;SDS011;50653;47.810;13.022;2023-02-28T21:09:24;37.83;;;31.08;;
14396;SDS011;50653;47.810;13.022;2023-02-28T21:11:52;39.00;;;28.17;;
14396;SDS011;50653;47.810;13.022;2023-02-28T21:14:18;32.88;;;29.30;;
14396;SDS011;50653;47.810;13.022;2023-02-28T21:16:44;34.80;;;29.40;;
14396;SDS011;50653;47.810;13.022;2023-02-28T21:19:11;40.15;;;31.08;;
14396;SDS011;50653;47.810;13.022;2023-02-28T21:21:38;41.17;;;30.20;;
14396;SDS011;50653;47.810;13.022;2023-02-28T21:24:08;37.80;;;29.63;;
14396;SDS011;50653;47.810;13.022;2023-02-28T21:26:43;37.00;;;30.33;;
14396;SDS011;50653;47.810;13.022;2023-02-28T21:29:11;36.95;;;30.67;;
14396;SDS011;50653;47.810;13.022;2023-02-28T21:31:38;40.03;;;32.13;;
14396;SDS011;50653;47.810;13.022;2023-02-28T21:34:05;37.70;;;28.90;;
14396;SDS011;50653;47.810;13.022;2023-02-28T21:36:36;36.22;;;30.15;;
14396;SDS011;50653;47.810;13.022;2023-02-28T21:39:15;40.23;;;30.80;;
14396;SDS011;50653;47.810;13.022;2023-02-28T21:41:44;35.00;;;28.08;;
14396;SDS011;50653;47.810;13.022;2023-02-28T21:44:10;45.58;;;34.65;;
14396;SDS011;50653;47.810;13.022;2023-02-28T21:46:46;40.95;;;31.80;;
14396;SDS011;50653;47.810;13.022;2023-02-28T21:49:13;42.63;;;31.38;;
14396;SDS011;50653;47.810;13.022;2023-02-28T21:51:40;38.88;;;29.35;;
14396;SDS011;50653;47.810;13.022;2023-02-28T21:54:06;35.00;;;29.02;;
14396;SDS011;50653;47.810;13.022;2023-02-28T21:56:33;35.97;;;30.20;;
14396;SDS011;50653;47.810;13.022;2023-02-28T21:58:59;33.15;;;28.20;;
14396;SDS011;50653;47.810;13.022;2023-02-28T22:01:27;36.72;;;27.90;;
14396;SDS011;50653;47.810;13.022;2023-02-28T22:03:55;37.70;;;30.42;;
14396;SDS011;50653;47.810;13.022;2023-02-28T22:06:24;36.80;;;29.25;;
14396;SDS011;50653;47.810;13.022;2023-02-28T22:08:52;37.92;;;28.88;;
14396;SDS011;50653;47.810;13.022;2023-02-28T22:11:20;37.05;;;29.80;;
14396;SDS011;50653;47.810;13.022;2023-02-28T22:13:46;36.28;;;29.65;;
14396;SDS011;50653;47.810;13.022;2023-02-28T22:16:16;33.50;;;29.48;;
14396;SDS011;50653;47.810;13.022;2023-02-28T22:18:43;36.90;;;28.95;;
14396;SDS011;50653;47.810;13.022;2023-02-28T22:21:09;36.65;;;29.15;;
14396;SDS011;50653;47.810;13.022;2023-02-28T22:23:37;36.83;;;28.95;;
14396;SDS011;50653;47.810;13.022;2023-02-28T22:26:04;32.33;;;26.80;;
14396;SDS011;50653;47.810;13.022;2023-02-28T22:28:32;31.70;;;26.92;;
14396;SDS011;50653;47.810;13.022;2023-02-28T22:30:58;33.33;;;26.15;;
14396;SDS011;50653;47.810;13.022;2023-02-28T22:33:24;31.48;;;24.08;;
14396;SDS011;50653;47.810;13.022;2023-02-28T22:35:51;30.15;;;24.50;;
14396;SDS011;50653;47.810;13.022;2023-02-28T22:38:17;28.63;;;24.45;;
14396;SDS011;50653;47.810;13.022;2023-02-28T22:40:43;33.17;;;25.40;;
14396;SDS011;50653;47.810;13.022;2023-02-28T22:43:09;31.27;;;25.53;;
14396;SDS011;50653;47.810;13.022;2023-02-28T22:45:38;27.73;;;23.70;;
14396;SDS011;50653;47.810;13.022;2023-02-28T22:48:06;31.13;;;25.05;;
14396;SDS011;50653;47.810;13.022;2023-02-28T22:50:32;33.42;;;25.10;;
14396;SDS011;50653;47.810;13.022;2023-02-28T22:52:59;32.03;;;24.20;;
14396;SDS011;50653;47.810;13.022;2023-02-28T22:55:25;34.20;;;24.48;;
14396;SDS011;50653;47.810;13.022;2023-02-28T22:57:51;30.58;;;24.20;;
14396;SDS011;50653;47.810;13.022;2023-02-28T23:00:17;30.33;;;24.30;;
14396;SDS011;50653;47.810;13.022;2023-02-28T23:02:44;27.65;;;23.98;;
14396;SDS011;50653;47.810;13.022;2023-02-28T23:05:12;29.23;;;21.70;;
14396;SDS011;50653;47.810;13.022;2023-02-28T23:07:39;30.23;;;24.98;;
14396;SDS011;50653;47.810;13.022;2023-02-28T23:10:06;27.80;;;23.95;;
14396;SDS011;50653;47.810;13.022;2023-02-28T23:12:33;29.80;;;23.45;;
14396;SDS011;50653;47.810;13.022;2023-02-28T23:14:59;28.15;;;23.40;;
14396;SDS011;50653;47.810;13.022;2023-02-28T23:17:25;30.83;;;25.58;;
14396;SDS011;50653;47.810;13.022;2023-02-28T23:19:51;27.48;;;22.58;;
14396;SDS011;50653;47.810;13.022;2023-02-28T23:22:16;28.80;;;22.50;;
14396;SDS011;50653;47.810;13.022;2023-02-28T23:24:42;26.75;;;21.80;;
14396;SDS011;50653;47.810;13.022;2023-02-28T23:27:08;30.58;;;24.27;;
14396;SDS011;50653;47.810;13.022;2023-02-28T23:29:34;27.75;;;22.80;;
14396;SDS011;50653;47.810;13.022;2023-02-28T23:32:00;31.45;;;24.60;;
14396;SDS011;50653;47.810;13.022;2023-02-28T23:34:26;27.63;;;22.35;;
14396;SDS011;50653;47.810;13.022;2023-02-28T23:36:57;30.17;;;23.75;;
14396;SDS011;50653;47.810;13.022;2023-02-28T23:39:24;31.85;;;22.98;;